sensor_id;sensor_type;location;lat;lon;timestamp;temperature;humidity
36372;DHT22;22398;51.346;12.372;2023-03-23T00:02:48;13.00;78.60
36372;DHT22;22398;51.346;12.372;2023-03-23T00:07:50;13.00;78.70
36372;DHT22;22398;51.346;12.372;2023-03-23T00:12:57;13.00;78.80
36372;DHT22;22398;51.346;12.372;2023-03-23T00:18:03;13.00;78.90
36372;DHT22;22398;51.346;12.372;2023-03-23T00:23:06;13.00;78.90
36372;DHT22;22398;51.346;12.372;2023-03-23T00:28:10;13.00;78.80
36372;DHT22;22398;51.346;12.372;2023-03-23T00:33:14;12.90;78.80
36372;DHT22;22398;51.346;12.372;2023-03-23T00:38:17;12.90;78.90
36372;DHT22;22398;51.346;12.372;2023-03-23T00:43:21;12.90;78.90
36372;DHT22;22398;51.346;12.372;2023-03-23T00:48:26;13.00;78.80
36372;DHT22;22398;51.346;12.372;2023-03-23T00:53:29;13.00;78.70
36372;DHT22;22398;51.346;12.372;2023-03-23T00:58:33;13.00;78.60
36372;DHT22;22398;51.346;12.372;2023-03-23T01:03:36;13.00;78.50
36372;DHT22;22398;51.346;12.372;2023-03-23T01:08:39;13.00;78.40
36372;DHT22;22398;51.346;12.372;2023-03-23T01:13:47;13.00;78.30
36372;DHT22;22398;51.346;12.372;2023-03-23T01:18:49;13.00;78.30
36372;DHT22;22398;51.346;12.372;2023-03-23T01:24:05;12.90;78.30
36372;DHT22;22398;51.346;12.372;2023-03-23T01:29:09;12.90;78.40
36372;DHT22;22398;51.346;12.372;2023-03-23T01:34:12;12.80;78.30
36372;DHT22;22398;51.346;12.372;2023-03-23T01:39:14;12.70;78.30
36372;DHT22;22398;51.346;12.372;2023-03-23T01:49:58;12.70;78.40
36372;DHT22;22398;51.346;12.372;2023-03-23T01:55:01;12.70;78.50
36372;DHT22;22398;51.346;12.372;2023-03-23T02:00:07;12.80;78.30
36372;DHT22;22398;51.346;12.372;2023-03-23T02:05:20;12.80;78.10
36372;DHT22;22398;51.346;12.372;2023-03-23T02:10:24;12.90;77.90
36372;DHT22;22398;51.346;12.372;2023-03-23T02:15:30;13.00;77.80
36372;DHT22;22398;51.346;12.372;2023-03-23T02:26:16;13.10;77.40
36372;DHT22;22398;51.346;12.372;2023-03-23T02:31:47;13.10;77.40
36372;DHT22;22398;51.346;12.372;2023-03-23T02:36:58;13.10;77.30
36372;DHT22;22398;51.346;12.372;2023-03-23T02:42:05;13.20;77.10
36372;DHT22;22398;51.346;12.372;2023-03-23T02:47:12;13.10;77.00
36372;DHT22;22398;51.346;12.372;2023-03-23T02:52:20;13.10;77.00
36372;DHT22;22398;51.346;12.372;2023-03-23T02:57:25;13.00;76.90
36372;DHT22;22398;51.346;12.372;2023-03-23T03:02:32;13.00;77.00
36372;DHT22;22398;51.346;12.372;2023-03-23T03:07:44;13.00;76.90
36372;DHT22;22398;51.346;12.372;2023-03-23T03:12:56;13.10;77.00
36372;DHT22;22398;51.346;12.372;2023-03-23T03:18:11;13.10;76.90
36372;DHT22;22398;51.346;12.372;2023-03-23T03:23:17;13.20;76.90
36372;DHT22;22398;51.346;12.372;2023-03-23T03:28:22;13.20;76.90
36372;DHT22;22398;51.346;12.372;2023-03-23T03:33:27;13.20;76.90
36372;DHT22;22398;51.346;12.372;2023-03-23T03:38:42;13.20;76.80
36372;DHT22;22398;51.346;12.372;2023-03-23T03:43:45;13.20;76.80
36372;DHT22;22398;51.346;12.372;2023-03-23T03:48:47;13.20;76.80
36372;DHT22;22398;51.346;12.372;2023-03-23T03:53:56;13.30;76.90
36372;DHT22;22398;51.346;12.372;2023-03-23T03:58:58;13.40;76.90
36372;DHT22;22398;51.346;12.372;2023-03-23T04:04:24;13.40;76.70
36372;DHT22;22398;51.346;12.372;2023-03-23T04:09:27;13.50;76.60
36372;DHT22;22398;51.346;12.372;2023-03-23T04:14:33;13.40;76.50
36372;DHT22;22398;51.346;12.372;2023-03-23T04:19:36;13.40;76.60
36372;DHT22;22398;51.346;12.372;2023-03-23T04:24:41;13.40;76.60
36372;DHT22;22398;51.346;12.372;2023-03-23T04:29:48;13.50;76.60
36372;DHT22;22398;51.346;12.372;2023-03-23T04:35:14;13.50;76.50
36372;DHT22;22398;51.346;12.372;2023-03-23T04:40:26;13.60;76.40
36372;DHT22;22398;51.346;12.372;2023-03-23T04:45:38;13.60;76.30
36372;DHT22;22398;51.346;12.372;2023-03-23T04:50:43;13.70;76.30
36372;DHT22;22398;51.346;12.372;2023-03-23T04:55:57;13.60;76.20
36372;DHT22;22398;51.346;12.372;2023-03-23T05:01:04;13.60;76.20
36372;DHT22;22398;51.346;12.372;2023-03-23T05:06:12;13.60;76.30
36372;DHT22;22398;51.346;12.372;2023-03-23T05:11:16;13.60;76.40
36372;DHT22;22398;51.346;12.372;2023-03-23T05:16:19;13.50;76.50
36372;DHT22;22398;51.346;12.372;2023-03-23T05:21:21;13.50;76.80
36372;DHT22;22398;51.346;12.372;2023-03-23T05:26:29;13.50;77.10
36372;DHT22;22398;51.346;12.372;2023-03-23T05:31:38;13.50;77.30
36372;DHT22;22398;51.346;12.372;2023-03-23T05:36:41;13.50;77.50
36372;DHT22;22398;51.346;12.372;2023-03-23T05:41:49;13.50;77.70
36372;DHT22;22398;51.346;12.372;2023-03-23T05:46:52;13.50;78.10
36372;DHT22;22398;51.346;12.372;2023-03-23T05:51:55;13.50;78.30
36372;DHT22;22398;51.346;12.372;2023-03-23T05:56:59;13.50;78.90
36372;DHT22;22398;51.346;12.372;2023-03-23T06:02:17;13.60;78.70
36372;DHT22;22398;51.346;12.372;2023-03-23T06:07:20;13.60;78.80
36372;DHT22;22398;51.346;12.372;2023-03-23T06:12:33;13.60;78.90
36372;DHT22;22398;51.346;12.372;2023-03-23T06:17:58;13.60;79.20
36372;DHT22;22398;51.346;12.372;2023-03-23T06:23:05;13.60;79.60
36372;DHT22;22398;51.346;12.372;2023-03-23T06:28:11;13.70;80.20
36372;DHT22;22398;51.346;12.372;2023-03-23T06:33:18;13.70;80.90
36372;DHT22;22398;51.346;12.372;2023-03-23T06:38:43;13.70;81.60
36372;DHT22;22398;51.346;12.372;2023-03-23T06:43:47;13.70;82.30
36372;DHT22;22398;51.346;12.372;2023-03-23T06:48:55;13.70;83.00
36372;DHT22;22398;51.346;12.372;2023-03-23T06:54:08;13.60;83.80
36372;DHT22;22398;51.346;12.372;2023-03-23T06:59:15;13.60;84.60
36372;DHT22;22398;51.346;12.372;2023-03-23T07:04:18;13.70;85.30
36372;DHT22;22398;51.346;12.372;2023-03-23T07:09:29;13.70;85.60
36372;DHT22;22398;51.346;12.372;2023-03-23T07:14:33;13.80;85.70
36372;DHT22;22398;51.346;12.372;2023-03-23T07:19:36;13.80;85.80
36372;DHT22;22398;51.346;12.372;2023-03-23T07:24:38;13.80;85.80
36372;DHT22;22398;51.346;12.372;2023-03-23T07:30:03;13.80;85.80
36372;DHT22;22398;51.346;12.372;2023-03-23T07:35:07;13.80;85.90
36372;DHT22;22398;51.346;12.372;2023-03-23T07:40:30;13.90;86.30
36372;DHT22;22398;51.346;12.372;2023-03-23T07:45:40;13.90;86.50
36372;DHT22;22398;51.346;12.372;2023-03-23T07:50:42;14.00;87.00
36372;DHT22;22398;51.346;12.372;2023-03-23T07:55:46;14.00;87.10
36372;DHT22;22398;51.346;12.372;2023-03-23T08:01:11;14.00;87.40
36372;DHT22;22398;51.346;12.372;2023-03-23T08:06:16;14.10;87.60
36372;DHT22;22398;51.346;12.372;2023-03-23T08:11:18;14.30;87.60
36372;DHT22;22398;51.346;12.372;2023-03-23T08:16:58;14.50;87.70
36372;DHT22;22398;51.346;12.372;2023-03-23T08:22:11;14.60;87.70
36372;DHT22;22398;51.346;12.372;2023-03-23T08:27:32;14.70;87.90
36372;DHT22;22398;51.346;12.372;2023-03-23T08:32:49;14.60;88.20
36372;DHT22;22398;51.346;12.372;2023-03-23T08:38:11;14.60;89.30
36372;DHT22;22398;51.346;12.372;2023-03-23T08:43:46;14.70;89.90
36372;DHT22;22398;51.346;12.372;2023-03-23T08:49:13;14.90;90.30
36372;DHT22;22398;51.346;12.372;2023-03-23T08:54:16;15.20;90.50
36372;DHT22;22398;51.346;12.372;2023-03-23T08:59:38;15.80;90.50
36372;DHT22;22398;51.346;12.372;2023-03-23T09:04:54;16.20;89.60
36372;DHT22;22398;51.346;12.372;2023-03-23T09:10:19;16.60;88.30
36372;DHT22;22398;51.346;12.372;2023-03-23T09:15:22;16.80;86.90
36372;DHT22;22398;51.346;12.372;2023-03-23T09:20:27;16.80;85.70
36372;DHT22;22398;51.346;12.372;2023-03-23T09:25:29;17.30;85.20
36372;DHT22;22398;51.346;12.372;2023-03-23T09:30:33;17.80;83.70
36372;DHT22;22398;51.346;12.372;2023-03-23T09:35:38;17.90;82.00
36372;DHT22;22398;51.346;12.372;2023-03-23T09:40:46;17.70;81.20
36372;DHT22;22398;51.346;12.372;2023-03-23T09:45:58;17.80;81.10
36372;DHT22;22398;51.346;12.372;2023-03-23T09:51:09;17.90;80.30
36372;DHT22;22398;51.346;12.372;2023-03-23T09:56:15;18.10;79.30
36372;DHT22;22398;51.346;12.372;2023-03-23T10:01:23;18.20;78.00
36372;DHT22;22398;51.346;12.372;2023-03-23T10:06:28;18.20;77.30
36372;DHT22;22398;51.346;12.372;2023-03-23T10:11:37;18.00;76.90
36372;DHT22;22398;51.346;12.372;2023-03-23T10:16:50;18.00;76.20
36372;DHT22;22398;51.346;12.372;2023-03-23T10:21:59;17.90;75.80
36372;DHT22;22398;51.346;12.372;2023-03-23T10:27:11;18.00;75.60
36372;DHT22;22398;51.346;12.372;2023-03-23T10:32:18;18.10;75.20
36372;DHT22;22398;51.346;12.372;2023-03-23T10:37:25;18.10;73.90
36372;DHT22;22398;51.346;12.372;2023-03-23T10:42:31;18.10;73.10
36372;DHT22;22398;51.346;12.372;2023-03-23T10:47:36;18.20;72.60
36372;DHT22;22398;51.346;12.372;2023-03-23T10:52:43;18.20;72.10
36372;DHT22;22398;51.346;12.372;2023-03-23T10:57:58;18.10;71.90
36372;DHT22;22398;51.346;12.372;2023-03-23T11:03:03;18.10;71.40
36372;DHT22;22398;51.346;12.372;2023-03-23T11:08:13;18.10;70.80
36372;DHT22;22398;51.346;12.372;2023-03-23T11:13:17;17.80;69.80
36372;DHT22;22398;51.346;12.372;2023-03-23T11:18:22;17.90;69.50
36372;DHT22;22398;51.346;12.372;2023-03-23T11:23:28;18.20;68.50
36372;DHT22;22398;51.346;12.372;2023-03-23T11:28:33;18.10;67.50
36372;DHT22;22398;51.346;12.372;2023-03-23T11:33:39;17.70;67.30
36372;DHT22;22398;51.346;12.372;2023-03-23T11:38:44;17.60;67.60
36372;DHT22;22398;51.346;12.372;2023-03-23T11:43:47;17.50;67.90
36372;DHT22;22398;51.346;12.372;2023-03-23T11:48:54;17.40;68.00
36372;DHT22;22398;51.346;12.372;2023-03-23T11:54:04;17.40;68.30
36372;DHT22;22398;51.346;12.372;2023-03-23T11:59:10;17.30;68.30
36372;DHT22;22398;51.346;12.372;2023-03-23T12:04:33;17.30;68.40
36372;DHT22;22398;51.346;12.372;2023-03-23T12:09:43;17.50;68.40
36372;DHT22;22398;51.346;12.372;2023-03-23T12:14:54;17.80;68.40
36372;DHT22;22398;51.346;12.372;2023-03-23T12:20:09;18.20;68.20
36372;DHT22;22398;51.346;12.372;2023-03-23T12:25:33;18.30;67.80
36372;DHT22;22398;51.346;12.372;2023-03-23T12:30:44;18.40;67.60
36372;DHT22;22398;51.346;12.372;2023-03-23T12:35:58;18.30;67.60
36372;DHT22;22398;51.346;12.372;2023-03-23T12:41:11;18.40;68.00
36372;DHT22;22398;51.346;12.372;2023-03-23T12:46:37;18.80;67.90
36372;DHT22;22398;51.346;12.372;2023-03-23T12:51:49;19.00;67.20
36372;DHT22;22398;51.346;12.372;2023-03-23T12:57:00;18.90;66.90
36372;DHT22;22398;51.346;12.372;2023-03-23T13:02:10;19.40;66.40
36372;DHT22;22398;51.346;12.372;2023-03-23T13:07:18;19.60;65.30
36372;DHT22;22398;51.346;12.372;2023-03-23T13:12:24;19.20;64.00
36372;DHT22;22398;51.346;12.372;2023-03-23T13:17:38;18.80;63.70
36372;DHT22;22398;51.346;12.372;2023-03-23T13:22:46;18.80;63.50
36372;DHT22;22398;51.346;12.372;2023-03-23T13:28:00;18.60;63.10
36372;DHT22;22398;51.346;12.372;2023-03-23T13:33:04;18.20;63.30
36372;DHT22;22398;51.346;12.372;2023-03-23T13:38:19;17.90;63.40
36372;DHT22;22398;51.346;12.372;2023-03-23T13:43:30;17.60;64.00
36372;DHT22;22398;51.346;12.372;2023-03-23T13:48:41;17.40;64.50
36372;DHT22;22398;51.346;12.372;2023-03-23T13:53:45;17.10;65.00
36372;DHT22;22398;51.346;12.372;2023-03-23T13:58:51;17.00;65.60
36372;DHT22;22398;51.346;12.372;2023-03-23T14:03:56;16.90;65.90
36372;DHT22;22398;51.346;12.372;2023-03-23T14:09:05;16.80;66.40
36372;DHT22;22398;51.346;12.372;2023-03-23T14:14:20;16.70;67.10
36372;DHT22;22398;51.346;12.372;2023-03-23T14:19:26;16.80;67.40
36372;DHT22;22398;51.346;12.372;2023-03-23T14:24:31;16.80;67.60
36372;DHT22;22398;51.346;12.372;2023-03-23T14:29:35;16.80;67.60
36372;DHT22;22398;51.346;12.372;2023-03-23T14:34:37;16.90;67.60
36372;DHT22;22398;51.346;12.372;2023-03-23T14:39:39;16.80;67.70
36372;DHT22;22398;51.346;12.372;2023-03-23T14:44:48;16.90;67.80
36372;DHT22;22398;51.346;12.372;2023-03-23T14:49:53;17.00;67.80
36372;DHT22;22398;51.346;12.372;2023-03-23T14:55:11;16.90;68.10
36372;DHT22;22398;51.346;12.372;2023-03-23T15:00:20;16.60;68.40
36372;DHT22;22398;51.346;12.372;2023-03-23T15:05:26;16.40;68.80
36372;DHT22;22398;51.346;12.372;2023-03-23T15:10:29;16.30;69.40
36372;DHT22;22398;51.346;12.372;2023-03-23T15:15:35;16.20;69.90
36372;DHT22;22398;51.346;12.372;2023-03-23T15:20:45;16.10;70.30
36372;DHT22;22398;51.346;12.372;2023-03-23T15:25:49;16.10;70.70
36372;DHT22;22398;51.346;12.372;2023-03-23T15:30:56;16.00;71.20
36372;DHT22;22398;51.346;12.372;2023-03-23T15:35:59;16.00;71.60
36372;DHT22;22398;51.346;12.372;2023-03-23T15:41:03;16.00;72.10
36372;DHT22;22398;51.346;12.372;2023-03-23T15:46:23;15.90;72.40
36372;DHT22;22398;51.346;12.372;2023-03-23T15:51:28;15.90;72.80
36372;DHT22;22398;51.346;12.372;2023-03-23T15:56:30;15.90;73.10
36372;DHT22;22398;51.346;12.372;2023-03-23T16:01:35;15.90;73.30
36372;DHT22;22398;51.346;12.372;2023-03-23T16:06:41;16.00;73.50
36372;DHT22;22398;51.346;12.372;2023-03-23T16:11:45;16.00;73.70
36372;DHT22;22398;51.346;12.372;2023-03-23T16:16:50;15.90;74.00
36372;DHT22;22398;51.346;12.372;2023-03-23T16:21:55;16.00;74.40
36372;DHT22;22398;51.346;12.372;2023-03-23T16:26:58;16.00;74.50
36372;DHT22;22398;51.346;12.372;2023-03-23T16:32:03;15.70;74.80
36372;DHT22;22398;51.346;12.372;2023-03-23T16:37:08;15.60;75.30
36372;DHT22;22398;51.346;12.372;2023-03-23T16:42:11;15.50;75.70
36372;DHT22;22398;51.346;12.372;2023-03-23T16:47:16;15.50;76.00
36372;DHT22;22398;51.346;12.372;2023-03-23T16:52:24;15.50;75.90
36372;DHT22;22398;51.346;12.372;2023-03-23T16:57:28;15.50;76.00
36372;DHT22;22398;51.346;12.372;2023-03-23T17:02:32;15.40;76.00
36372;DHT22;22398;51.346;12.372;2023-03-23T17:07:36;15.30;76.20
36372;DHT22;22398;51.346;12.372;2023-03-23T17:12:40;15.30;76.40
36372;DHT22;22398;51.346;12.372;2023-03-23T17:17:45;15.20;76.60
36372;DHT22;22398;51.346;12.372;2023-03-23T17:22:48;15.00;76.70
36372;DHT22;22398;51.346;12.372;2023-03-23T17:27:53;14.60;77.40
36372;DHT22;22398;51.346;12.372;2023-03-23T17:33:09;14.40;78.20
36372;DHT22;22398;51.346;12.372;2023-03-23T17:38:12;14.20;78.90
36372;DHT22;22398;51.346;12.372;2023-03-23T17:43:16;14.00;79.50
36372;DHT22;22398;51.346;12.372;2023-03-23T17:48:21;13.90;80.10
36372;DHT22;22398;51.346;12.372;2023-03-23T17:53:24;13.80;80.70
36372;DHT22;22398;51.346;12.372;2023-03-23T17:58:28;13.70;81.30
36372;DHT22;22398;51.346;12.372;2023-03-23T18:03:33;13.70;81.80
36372;DHT22;22398;51.346;12.372;2023-03-23T18:08:37;14.30;82.80
36372;DHT22;22398;51.346;12.372;2023-03-23T18:13:40;13.50;82.90
36372;DHT22;22398;51.346;12.372;2023-03-23T18:18:45;13.50;83.40
36372;DHT22;22398;51.346;12.372;2023-03-23T18:23:49;13.40;83.90
36372;DHT22;22398;51.346;12.372;2023-03-23T18:29:00;13.30;84.50
36372;DHT22;22398;51.346;12.372;2023-03-23T18:34:06;13.30;84.90
36372;DHT22;22398;51.346;12.372;2023-03-23T18:39:09;13.20;85.20
36372;DHT22;22398;51.346;12.372;2023-03-23T18:44:13;13.20;85.70
36372;DHT22;22398;51.346;12.372;2023-03-23T18:49:18;13.20;86.10
36372;DHT22;22398;51.346;12.372;2023-03-23T18:54:21;13.20;86.40
36372;DHT22;22398;51.346;12.372;2023-03-23T18:59:24;13.30;86.70
36372;DHT22;22398;51.346;12.372;2023-03-23T19:04:32;13.30;86.90
36372;DHT22;22398;51.346;12.372;2023-03-23T19:09:35;13.40;87.00
36372;DHT22;22398;51.346;12.372;2023-03-23T19:14:40;13.50;87.10
36372;DHT22;22398;51.346;12.372;2023-03-23T19:19:45;13.60;87.10
36372;DHT22;22398;51.346;12.372;2023-03-23T19:24:48;13.70;87.20
36372;DHT22;22398;51.346;12.372;2023-03-23T19:29:51;13.70;87.30
36372;DHT22;22398;51.346;12.372;2023-03-23T19:34:56;13.60;87.90
36372;DHT22;22398;51.346;12.372;2023-03-23T19:40:00;13.40;87.70
36372;DHT22;22398;51.346;12.372;2023-03-23T19:45:18;13.40;88.20
36372;DHT22;22398;51.346;12.372;2023-03-23T19:50:23;13.20;88.60
36372;DHT22;22398;51.346;12.372;2023-03-23T19:55:27;13.10;89.20
36372;DHT22;22398;51.346;12.372;2023-03-23T20:00:30;13.00;90.00
36372;DHT22;22398;51.346;12.372;2023-03-23T20:05:38;12.90;90.20
36372;DHT22;22398;51.346;12.372;2023-03-23T20:10:42;12.90;90.50
36372;DHT22;22398;51.346;12.372;2023-03-23T20:15:50;12.70;90.70
36372;DHT22;22398;51.346;12.372;2023-03-23T20:21:01;12.70;91.10
36372;DHT22;22398;51.346;12.372;2023-03-23T20:26:08;12.60;91.40
36372;DHT22;22398;51.346;12.372;2023-03-23T20:31:19;12.60;91.90
36372;DHT22;22398;51.346;12.372;2023-03-23T20:36:27;12.60;92.10
36372;DHT22;22398;51.346;12.372;2023-03-23T20:41:36;12.60;92.20
36372;DHT22;22398;51.346;12.372;2023-03-23T20:46:41;12.50;92.50
36372;DHT22;22398;51.346;12.372;2023-03-23T20:51:46;12.50;92.80
36372;DHT22;22398;51.346;12.372;2023-03-23T20:56:51;12.40;93.10
36372;DHT22;22398;51.346;12.372;2023-03-23T21:01:57;12.40;93.30
36372;DHT22;22398;51.346;12.372;2023-03-23T21:07:02;12.30;93.60
36372;DHT22;22398;51.346;12.372;2023-03-23T21:12:06;12.30;93.90
36372;DHT22;22398;51.346;12.372;2023-03-23T21:17:10;12.30;94.20
36372;DHT22;22398;51.346;12.372;2023-03-23T21:22:16;12.30;94.50
36372;DHT22;22398;51.346;12.372;2023-03-23T21:27:20;12.30;94.80
36372;DHT22;22398;51.346;12.372;2023-03-23T21:32:23;12.20;94.90
36372;DHT22;22398;51.346;12.372;2023-03-23T21:37:28;12.10;95.30
36372;DHT22;22398;51.346;12.372;2023-03-23T21:42:32;12.10;95.60
36372;DHT22;22398;51.346;12.372;2023-03-23T21:47:36;12.10;95.80
36372;DHT22;22398;51.346;12.372;2023-03-23T21:52:41;12.10;96.10
36372;DHT22;22398;51.346;12.372;2023-03-23T21:57:45;12.10;96.20
36372;DHT22;22398;51.346;12.372;2023-03-23T22:02:49;12.10;96.50
36372;DHT22;22398;51.346;12.372;2023-03-23T22:07:55;12.10;96.60
36372;DHT22;22398;51.346;12.372;2023-03-23T22:12:59;12.10;96.80
36372;DHT22;22398;51.346;12.372;2023-03-23T22:18:02;12.10;97.00
36372;DHT22;22398;51.346;12.372;2023-03-23T22:23:08;12.00;97.10
36372;DHT22;22398;51.346;12.372;2023-03-23T22:28:11;12.10;97.30
36372;DHT22;22398;51.346;12.372;2023-03-23T22:33:15;12.00;97.40
36372;DHT22;22398;51.346;12.372;2023-03-23T22:38:20;12.00;97.60
36372;DHT22;22398;51.346;12.372;2023-03-23T22:43:24;12.10;97.80
36372;DHT22;22398;51.346;12.372;2023-03-23T22:48:27;12.10;97.90
36372;DHT22;22398;51.346;12.372;2023-03-23T22:53:33;12.10;98.00
36372;DHT22;22398;51.346;12.372;2023-03-23T22:58:37;12.10;98.10
36372;DHT22;22398;51.346;12.372;2023-03-23T23:03:41;12.10;98.20
36372;DHT22;22398;51.346;12.372;2023-03-23T23:08:46;12.10;98.30
36372;DHT22;22398;51.346;12.372;2023-03-23T23:13:50;12.20;98.30
36372;DHT22;22398;51.346;12.372;2023-03-23T23:18:54;12.20;98.30
36372;DHT22;22398;51.346;12.372;2023-03-23T23:23:59;12.20;98.40
36372;DHT22;22398;51.346;12.372;2023-03-23T23:29:03;12.10;98.20
36372;DHT22;22398;51.346;12.372;2023-03-23T23:34:06;12.00;98.20
36372;DHT22;22398;51.346;12.372;2023-03-23T23:39:11;12.10;98.40
36372;DHT22;22398;51.346;12.372;2023-03-23T23:44:15;12.30;98.40
36372;DHT22;22398;51.346;12.372;2023-03-23T23:49:19;12.40;98.20
36372;DHT22;22398;51.346;12.372;2023-03-23T23:54:25;12.50;98.00
36372;DHT22;22398;51.346;12.372;2023-03-23T23:59:31;12.60;97.80
